sensor_id;sensor_type;location;lat;lon;timestamp;P1;durP1;ratioP1;P2;durP2;ratioP2
21258;SDS011;10787;53.364;-1.480;2023-03-02T00:01:40;12.63;;;4.77;;
21258;SDS011;10787;53.364;-1.480;2023-03-02T00:04:13;12.33;;;4.53;;
21258;SDS011;10787;53.364;-1.480;2023-03-02T00:06:50;9.17;;;4.13;;
21258;SDS011;10787;53.364;-1.480;2023-03-02T00:09:17;9.47;;;4.10;;
21258;SDS011;10787;53.364;-1.480;2023-03-02T00:11:43;11.60;;;3.90;;
21258;SDS011;10787;53.364;-1.480;2023-03-02T00:14:09;13.47;;;4.03;;
21258;SDS011;10787;53.364;-1.480;2023-03-02T00:16:35;14.23;;;4.20;;
21258;SDS011;10787;53.364;-1.480;2023-03-02T00:19:01;11.97;;;3.50;;
21258;SDS011;10787;53.364;-1.480;2023-03-02T00:21:27;8.27;;;3.43;;
21258;SDS011;10787;53.364;-1.480;2023-03-02T00:23:53;9.77;;;3.50;;
21258;SDS011;10787;53.364;-1.480;2023-03-02T00:26:18;8.67;;;3.43;;
21258;SDS011;10787;53.364;-1.480;2023-03-02T00:28:44;10.13;;;3.90;;
21258;SDS011;10787;53.364;-1.480;2023-03-02T00:31:10;10.07;;;3.70;;
21258;SDS011;10787;53.364;-1.480;2023-03-02T00:33:36;10.80;;;3.93;;
21258;SDS011;10787;53.364;-1.480;2023-03-02T00:36:02;10.73;;;4.23;;
21258;SDS011;10787;53.364;-1.480;2023-03-02T00:38:40;11.97;;;4.03;;
21258;SDS011;10787;53.364;-1.480;2023-03-02T00:41:05;10.17;;;3.80;;
21258;SDS011;10787;53.364;-1.480;2023-03-02T00:43:31;13.37;;;4.30;;
21258;SDS011;10787;53.364;-1.480;2023-03-02T00:45:57;12.50;;;4.13;;
21258;SDS011;10787;53.364;-1.480;2023-03-02T00:48:23;13.37;;;4.10;;
21258;SDS011;10787;53.364;-1.480;2023-03-02T00:50:49;8.60;;;3.60;;
21258;SDS011;10787;53.364;-1.480;2023-03-02T00:53:14;14.53;;;3.97;;
21258;SDS011;10787;53.364;-1.480;2023-03-02T00:55:42;9.93;;;4.03;;
21258;SDS011;10787;53.364;-1.480;2023-03-02T00:58:17;14.80;;;4.33;;
21258;SDS011;10787;53.364;-1.480;2023-03-02T01:00:43;14.57;;;4.97;;
21258;SDS011;10787;53.364;-1.480;2023-03-02T01:03:09;8.03;;;4.00;;
21258;SDS011;10787;53.364;-1.480;2023-03-02T01:05:35;12.50;;;4.10;;
21258;SDS011;10787;53.364;-1.480;2023-03-02T01:08:01;12.27;;;4.17;;
21258;SDS011;10787;53.364;-1.480;2023-03-02T01:10:27;11.00;;;3.93;;
21258;SDS011;10787;53.364;-1.480;2023-03-02T01:12:52;15.73;;;4.37;;
21258;SDS011;10787;53.364;-1.480;2023-03-02T01:15:18;13.23;;;4.60;;
21258;SDS011;10787;53.364;-1.480;2023-03-02T01:17:44;10.40;;;4.17;;
21258;SDS011;10787;53.364;-1.480;2023-03-02T01:20:11;10.80;;;3.77;;
21258;SDS011;10787;53.364;-1.480;2023-03-02T01:22:37;14.00;;;4.20;;
21258;SDS011;10787;53.364;-1.480;2023-03-02T01:25:03;13.80;;;4.30;;
21258;SDS011;10787;53.364;-1.480;2023-03-02T01:27:30;15.00;;;4.97;;
21258;SDS011;10787;53.364;-1.480;2023-03-02T01:29:56;14.80;;;4.10;;
21258;SDS011;10787;53.364;-1.480;2023-03-02T01:32:21;15.40;;;4.13;;
21258;SDS011;10787;53.364;-1.480;2023-03-02T01:34:47;12.27;;;3.90;;
21258;SDS011;10787;53.364;-1.480;2023-03-02T01:37:13;12.77;;;3.47;;
21258;SDS011;10787;53.364;-1.480;2023-03-02T01:39:39;10.47;;;4.03;;
21258;SDS011;10787;53.364;-1.480;2023-03-02T01:42:04;14.07;;;3.97;;
21258;SDS011;10787;53.364;-1.480;2023-03-02T01:44:40;13.50;;;4.10;;
21258;SDS011;10787;53.364;-1.480;2023-03-02T01:47:22;12.07;;;3.50;;
21258;SDS011;10787;53.364;-1.480;2023-03-02T01:50:25;13.87;;;3.60;;
21258;SDS011;10787;53.364;-1.480;2023-03-02T01:52:49;11.87;;;3.33;;
21258;SDS011;10787;53.364;-1.480;2023-03-02T01:55:18;10.87;;;3.50;;
21258;SDS011;10787;53.364;-1.480;2023-03-02T01:57:51;11.90;;;3.50;;
21258;SDS011;10787;53.364;-1.480;2023-03-02T02:00:24;11.90;;;3.40;;
21258;SDS011;10787;53.364;-1.480;2023-03-02T02:02:54;11.83;;;4.00;;
21258;SDS011;10787;53.364;-1.480;2023-03-02T02:05:32;13.17;;;3.93;;
21258;SDS011;10787;53.364;-1.480;2023-03-02T02:08:04;15.43;;;4.20;;
21258;SDS011;10787;53.364;-1.480;2023-03-02T02:10:30;9.67;;;3.70;;
21258;SDS011;10787;53.364;-1.480;2023-03-02T02:12:58;17.67;;;4.10;;
21258;SDS011;10787;53.364;-1.480;2023-03-02T02:15:24;10.43;;;3.93;;
21258;SDS011;10787;53.364;-1.480;2023-03-02T02:17:50;9.60;;;4.13;;
21258;SDS011;10787;53.364;-1.480;2023-03-02T02:31:23;13.87;;;3.80;;
21258;SDS011;10787;53.364;-1.480;2023-03-02T02:34:11;10.07;;;4.27;;
21258;SDS011;10787;53.364;-1.480;2023-03-02T02:36:48;11.40;;;3.73;;
21258;SDS011;10787;53.364;-1.480;2023-03-02T02:39:21;13.93;;;4.17;;
21258;SDS011;10787;53.364;-1.480;2023-03-02T02:41:53;12.20;;;3.77;;
21258;SDS011;10787;53.364;-1.480;2023-03-02T02:44:22;11.03;;;3.80;;
21258;SDS011;10787;53.364;-1.480;2023-03-02T02:46:48;12.60;;;4.40;;
21258;SDS011;10787;53.364;-1.480;2023-03-02T02:49:26;16.70;;;4.33;;
21258;SDS011;10787;53.364;-1.480;2023-03-02T02:51:55;12.37;;;4.10;;
21258;SDS011;10787;53.364;-1.480;2023-03-02T02:54:22;15.07;;;4.10;;
21258;SDS011;10787;53.364;-1.480;2023-03-02T02:56:48;11.00;;;3.90;;
21258;SDS011;10787;53.364;-1.480;2023-03-02T02:59:20;13.30;;;3.87;;
21258;SDS011;10787;53.364;-1.480;2023-03-02T03:01:48;11.30;;;4.13;;
21258;SDS011;10787;53.364;-1.480;2023-03-02T03:04:20;10.43;;;3.93;;
21258;SDS011;10787;53.364;-1.480;2023-03-02T03:06:50;11.37;;;3.73;;
21258;SDS011;10787;53.364;-1.480;2023-03-02T03:09:18;11.10;;;3.90;;
21258;SDS011;10787;53.364;-1.480;2023-03-02T03:11:45;14.00;;;4.10;;
21258;SDS011;10787;53.364;-1.480;2023-03-02T03:14:16;10.20;;;3.60;;
21258;SDS011;10787;53.364;-1.480;2023-03-02T03:16:44;15.20;;;3.50;;
21258;SDS011;10787;53.364;-1.480;2023-03-02T03:19:14;7.73;;;3.00;;
21258;SDS011;10787;53.364;-1.480;2023-03-02T03:21:44;9.87;;;3.20;;
21258;SDS011;10787;53.364;-1.480;2023-03-02T03:24:11;11.33;;;2.87;;
21258;SDS011;10787;53.364;-1.480;2023-03-02T03:26:37;12.53;;;3.50;;
21258;SDS011;10787;53.364;-1.480;2023-03-02T03:29:03;9.07;;;3.30;;
21258;SDS011;10787;53.364;-1.480;2023-03-02T03:31:29;9.87;;;3.20;;
21258;SDS011;10787;53.364;-1.480;2023-03-02T03:33:55;9.80;;;3.27;;
21258;SDS011;10787;53.364;-1.480;2023-03-02T03:36:24;7.37;;;2.90;;
21258;SDS011;10787;53.364;-1.480;2023-03-02T03:38:55;12.40;;;3.13;;
21258;SDS011;10787;53.364;-1.480;2023-03-02T03:41:21;10.50;;;3.17;;
21258;SDS011;10787;53.364;-1.480;2023-03-02T03:43:48;12.67;;;3.47;;
21258;SDS011;10787;53.364;-1.480;2023-03-02T03:46:14;13.60;;;4.20;;
21258;SDS011;10787;53.364;-1.480;2023-03-02T03:48:40;14.13;;;3.50;;
21258;SDS011;10787;53.364;-1.480;2023-03-02T03:51:07;11.20;;;3.30;;
21258;SDS011;10787;53.364;-1.480;2023-03-02T03:53:32;9.53;;;3.27;;
21258;SDS011;10787;53.364;-1.480;2023-03-02T03:55:59;12.97;;;3.60;;
21258;SDS011;10787;53.364;-1.480;2023-03-02T03:58:25;10.97;;;3.37;;
21258;SDS011;10787;53.364;-1.480;2023-03-02T04:00:51;12.50;;;3.80;;
21258;SDS011;10787;53.364;-1.480;2023-03-02T04:03:17;10.90;;;3.53;;
21258;SDS011;10787;53.364;-1.480;2023-03-02T04:05:44;8.97;;;3.70;;
21258;SDS011;10787;53.364;-1.480;2023-03-02T04:08:11;12.27;;;3.73;;
21258;SDS011;10787;53.364;-1.480;2023-03-02T04:10:37;9.77;;;3.77;;
21258;SDS011;10787;53.364;-1.480;2023-03-02T04:13:03;11.20;;;3.83;;
21258;SDS011;10787;53.364;-1.480;2023-03-02T04:15:29;10.03;;;4.07;;
21258;SDS011;10787;53.364;-1.480;2023-03-02T04:17:55;10.40;;;3.53;;
21258;SDS011;10787;53.364;-1.480;2023-03-02T04:20:22;9.20;;;3.93;;
21258;SDS011;10787;53.364;-1.480;2023-03-02T04:22:50;8.10;;;3.50;;
21258;SDS011;10787;53.364;-1.480;2023-03-02T04:25:19;10.30;;;3.67;;
21258;SDS011;10787;53.364;-1.480;2023-03-02T04:27:47;12.37;;;4.10;;
21258;SDS011;10787;53.364;-1.480;2023-03-02T04:30:16;8.60;;;3.73;;
21258;SDS011;10787;53.364;-1.480;2023-03-02T04:32:44;8.90;;;4.20;;
21258;SDS011;10787;53.364;-1.480;2023-03-02T04:35:11;8.17;;;3.67;;
21258;SDS011;10787;53.364;-1.480;2023-03-02T04:37:38;10.23;;;4.43;;
21258;SDS011;10787;53.364;-1.480;2023-03-02T04:40:06;11.17;;;4.30;;
21258;SDS011;10787;53.364;-1.480;2023-03-02T04:42:33;12.07;;;4.20;;
21258;SDS011;10787;53.364;-1.480;2023-03-02T04:44:59;11.20;;;4.40;;
21258;SDS011;10787;53.364;-1.480;2023-03-02T04:47:24;10.07;;;4.20;;
21258;SDS011;10787;53.364;-1.480;2023-03-02T04:49:51;11.50;;;4.87;;
21258;SDS011;10787;53.364;-1.480;2023-03-02T04:52:19;11.17;;;4.60;;
21258;SDS011;10787;53.364;-1.480;2023-03-02T04:54:45;10.30;;;4.73;;
21258;SDS011;10787;53.364;-1.480;2023-03-02T04:57:11;9.80;;;4.60;;
21258;SDS011;10787;53.364;-1.480;2023-03-02T04:59:37;12.17;;;5.20;;
21258;SDS011;10787;53.364;-1.480;2023-03-02T05:02:03;11.30;;;5.40;;
21258;SDS011;10787;53.364;-1.480;2023-03-02T05:04:29;12.53;;;5.50;;
21258;SDS011;10787;53.364;-1.480;2023-03-02T05:06:55;9.33;;;5.33;;
21258;SDS011;10787;53.364;-1.480;2023-03-02T05:09:21;11.20;;;5.47;;
21258;SDS011;10787;53.364;-1.480;2023-03-02T05:11:52;11.13;;;5.03;;
21258;SDS011;10787;53.364;-1.480;2023-03-02T05:14:19;12.00;;;5.00;;
21258;SDS011;10787;53.364;-1.480;2023-03-02T05:16:45;11.07;;;5.40;;
21258;SDS011;10787;53.364;-1.480;2023-03-02T05:19:11;9.43;;;4.83;;
21258;SDS011;10787;53.364;-1.480;2023-03-02T05:21:37;11.53;;;5.43;;
21258;SDS011;10787;53.364;-1.480;2023-03-02T05:24:03;10.77;;;5.50;;
21258;SDS011;10787;53.364;-1.480;2023-03-02T05:26:30;11.97;;;5.97;;
21258;SDS011;10787;53.364;-1.480;2023-03-02T05:28:56;11.73;;;6.07;;
21258;SDS011;10787;53.364;-1.480;2023-03-02T05:31:23;10.27;;;5.23;;
21258;SDS011;10787;53.364;-1.480;2023-03-02T05:33:59;12.60;;;5.30;;
21258;SDS011;10787;53.364;-1.480;2023-03-02T05:36:25;11.93;;;5.37;;
21258;SDS011;10787;53.364;-1.480;2023-03-02T05:38:51;13.30;;;5.60;;
21258;SDS011;10787;53.364;-1.480;2023-03-02T05:41:17;13.50;;;5.53;;
21258;SDS011;10787;53.364;-1.480;2023-03-02T05:43:43;11.70;;;5.33;;
21258;SDS011;10787;53.364;-1.480;2023-03-02T05:46:09;10.57;;;5.27;;
21258;SDS011;10787;53.364;-1.480;2023-03-02T05:48:35;12.60;;;5.60;;
21258;SDS011;10787;53.364;-1.480;2023-03-02T05:51:00;9.90;;;5.10;;
21258;SDS011;10787;53.364;-1.480;2023-03-02T05:53:26;11.87;;;5.90;;
21258;SDS011;10787;53.364;-1.480;2023-03-02T05:55:52;13.37;;;5.90;;
21258;SDS011;10787;53.364;-1.480;2023-03-02T05:58:18;12.40;;;5.93;;
21258;SDS011;10787;53.364;-1.480;2023-03-02T06:00:45;12.60;;;6.00;;
21258;SDS011;10787;53.364;-1.480;2023-03-02T06:03:12;13.17;;;6.20;;
21258;SDS011;10787;53.364;-1.480;2023-03-02T06:05:38;14.43;;;6.00;;
21258;SDS011;10787;53.364;-1.480;2023-03-02T06:08:04;13.37;;;6.17;;
21258;SDS011;10787;53.364;-1.480;2023-03-02T06:10:30;12.23;;;5.70;;
21258;SDS011;10787;53.364;-1.480;2023-03-02T06:12:56;10.27;;;5.23;;
21258;SDS011;10787;53.364;-1.480;2023-03-02T06:15:22;13.13;;;5.60;;
21258;SDS011;10787;53.364;-1.480;2023-03-02T06:17:48;13.03;;;5.50;;
21258;SDS011;10787;53.364;-1.480;2023-03-02T06:20:14;10.40;;;5.73;;
21258;SDS011;10787;53.364;-1.480;2023-03-02T06:22:49;16.17;;;5.93;;
21258;SDS011;10787;53.364;-1.480;2023-03-02T06:25:19;12.03;;;5.53;;
21258;SDS011;10787;53.364;-1.480;2023-03-02T06:27:47;10.70;;;6.10;;
21258;SDS011;10787;53.364;-1.480;2023-03-02T06:30:19;13.07;;;6.20;;
21258;SDS011;10787;53.364;-1.480;2023-03-02T06:32:46;20.30;;;8.10;;
21258;SDS011;10787;53.364;-1.480;2023-03-02T06:35:12;15.60;;;7.90;;
21258;SDS011;10787;53.364;-1.480;2023-03-02T06:37:38;17.33;;;7.50;;
21258;SDS011;10787;53.364;-1.480;2023-03-02T06:40:04;12.47;;;6.63;;
21258;SDS011;10787;53.364;-1.480;2023-03-02T06:42:40;20.50;;;7.87;;
21258;SDS011;10787;53.364;-1.480;2023-03-02T06:45:07;12.90;;;6.80;;
21258;SDS011;10787;53.364;-1.480;2023-03-02T06:47:33;12.90;;;6.83;;
21258;SDS011;10787;53.364;-1.480;2023-03-02T06:49:59;14.20;;;7.00;;
21258;SDS011;10787;53.364;-1.480;2023-03-02T06:52:25;13.07;;;7.03;;
21258;SDS011;10787;53.364;-1.480;2023-03-02T06:54:51;13.43;;;7.00;;
21258;SDS011;10787;53.364;-1.480;2023-03-02T06:57:18;17.60;;;6.80;;
21258;SDS011;10787;53.364;-1.480;2023-03-02T06:59:43;13.27;;;6.67;;
21258;SDS011;10787;53.364;-1.480;2023-03-02T07:02:09;13.20;;;6.60;;
21258;SDS011;10787;53.364;-1.480;2023-03-02T07:04:35;12.47;;;6.20;;
21258;SDS011;10787;53.364;-1.480;2023-03-02T07:07:01;14.23;;;6.20;;
21258;SDS011;10787;53.364;-1.480;2023-03-02T07:09:27;15.40;;;6.93;;
21258;SDS011;10787;53.364;-1.480;2023-03-02T07:11:55;11.37;;;6.40;;
21258;SDS011;10787;53.364;-1.480;2023-03-02T07:14:21;14.70;;;6.60;;
21258;SDS011;10787;53.364;-1.480;2023-03-02T07:16:47;10.40;;;5.90;;
21258;SDS011;10787;53.364;-1.480;2023-03-02T07:19:12;15.97;;;6.87;;
21258;SDS011;10787;53.364;-1.480;2023-03-02T07:21:38;12.73;;;6.80;;
21258;SDS011;10787;53.364;-1.480;2023-03-02T07:24:04;9.77;;;6.30;;
21258;SDS011;10787;53.364;-1.480;2023-03-02T07:26:30;11.63;;;6.20;;
21258;SDS011;10787;53.364;-1.480;2023-03-02T07:28:56;9.93;;;5.50;;
21258;SDS011;10787;53.364;-1.480;2023-03-02T07:31:23;11.37;;;6.00;;
21258;SDS011;10787;53.364;-1.480;2023-03-02T07:33:49;11.00;;;5.50;;
21258;SDS011;10787;53.364;-1.480;2023-03-02T07:36:15;10.17;;;6.33;;
21258;SDS011;10787;53.364;-1.480;2023-03-02T07:38:41;10.03;;;5.70;;
21258;SDS011;10787;53.364;-1.480;2023-03-02T07:41:07;11.50;;;5.70;;
21258;SDS011;10787;53.364;-1.480;2023-03-02T07:43:33;11.60;;;5.50;;
21258;SDS011;10787;53.364;-1.480;2023-03-02T07:46:01;10.57;;;6.10;;
21258;SDS011;10787;53.364;-1.480;2023-03-02T07:48:28;8.13;;;4.90;;
21258;SDS011;10787;53.364;-1.480;2023-03-02T07:51:01;8.77;;;4.70;;
21258;SDS011;10787;53.364;-1.480;2023-03-02T07:53:28;8.43;;;4.43;;
21258;SDS011;10787;53.364;-1.480;2023-03-02T07:55:53;7.10;;;4.60;;
21258;SDS011;10787;53.364;-1.480;2023-03-02T07:58:19;7.23;;;4.60;;
21258;SDS011;10787;53.364;-1.480;2023-03-02T08:00:47;8.53;;;4.30;;
21258;SDS011;10787;53.364;-1.480;2023-03-02T08:03:13;7.40;;;4.30;;
21258;SDS011;10787;53.364;-1.480;2023-03-02T08:05:39;7.47;;;3.90;;
21258;SDS011;10787;53.364;-1.480;2023-03-02T08:08:05;7.90;;;4.40;;
21258;SDS011;10787;53.364;-1.480;2023-03-02T08:10:34;6.37;;;3.93;;
21258;SDS011;10787;53.364;-1.480;2023-03-02T08:13:00;6.83;;;4.80;;
21258;SDS011;10787;53.364;-1.480;2023-03-02T08:15:26;5.77;;;3.50;;
21258;SDS011;10787;53.364;-1.480;2023-03-02T08:17:52;5.73;;;3.63;;
21258;SDS011;10787;53.364;-1.480;2023-03-02T08:20:17;7.03;;;3.70;;
21258;SDS011;10787;53.364;-1.480;2023-03-02T08:22:43;6.80;;;3.47;;
21258;SDS011;10787;53.364;-1.480;2023-03-02T08:25:09;8.23;;;3.70;;
21258;SDS011;10787;53.364;-1.480;2023-03-02T08:27:35;5.97;;;3.20;;
21258;SDS011;10787;53.364;-1.480;2023-03-02T08:30:01;5.63;;;3.23;;
21258;SDS011;10787;53.364;-1.480;2023-03-02T08:32:26;4.97;;;3.23;;
21258;SDS011;10787;53.364;-1.480;2023-03-02T08:34:52;5.03;;;3.40;;
21258;SDS011;10787;53.364;-1.480;2023-03-02T08:37:18;6.03;;;3.47;;
21258;SDS011;10787;53.364;-1.480;2023-03-02T08:39:44;5.77;;;3.50;;
21258;SDS011;10787;53.364;-1.480;2023-03-02T08:42:10;6.43;;;3.30;;
21258;SDS011;10787;53.364;-1.480;2023-03-02T08:44:35;6.03;;;3.33;;
21258;SDS011;10787;53.364;-1.480;2023-03-02T08:47:01;4.80;;;3.07;;
21258;SDS011;10787;53.364;-1.480;2023-03-02T08:49:27;6.90;;;3.60;;
21258;SDS011;10787;53.364;-1.480;2023-03-02T08:51:53;6.70;;;3.97;;
21258;SDS011;10787;53.364;-1.480;2023-03-02T08:54:21;7.60;;;4.00;;
21258;SDS011;10787;53.364;-1.480;2023-03-02T08:56:47;5.87;;;3.87;;
21258;SDS011;10787;53.364;-1.480;2023-03-02T08:59:13;6.00;;;3.87;;
21258;SDS011;10787;53.364;-1.480;2023-03-02T09:01:39;6.67;;;4.37;;
21258;SDS011;10787;53.364;-1.480;2023-03-02T09:04:05;6.47;;;4.93;;
21258;SDS011;10787;53.364;-1.480;2023-03-02T09:06:34;7.50;;;4.60;;
21258;SDS011;10787;53.364;-1.480;2023-03-02T09:09:01;7.67;;;5.63;;
21258;SDS011;10787;53.364;-1.480;2023-03-02T09:11:27;7.83;;;6.27;;
21258;SDS011;10787;53.364;-1.480;2023-03-02T09:13:53;9.17;;;6.50;;
21258;SDS011;10787;53.364;-1.480;2023-03-02T09:16:20;8.33;;;6.70;;
21258;SDS011;10787;53.364;-1.480;2023-03-02T09:18:48;9.83;;;6.30;;
21258;SDS011;10787;53.364;-1.480;2023-03-02T09:21:14;10.80;;;7.20;;
21258;SDS011;10787;53.364;-1.480;2023-03-02T09:23:40;8.50;;;7.53;;
21258;SDS011;10787;53.364;-1.480;2023-03-02T09:26:06;7.63;;;6.20;;
21258;SDS011;10787;53.364;-1.480;2023-03-02T09:28:32;7.90;;;6.23;;
21258;SDS011;10787;53.364;-1.480;2023-03-02T09:31:02;8.70;;;6.60;;
21258;SDS011;10787;53.364;-1.480;2023-03-02T09:33:30;9.90;;;7.10;;
21258;SDS011;10787;53.364;-1.480;2023-03-02T09:35:56;9.07;;;7.43;;
21258;SDS011;10787;53.364;-1.480;2023-03-02T09:38:22;9.27;;;7.20;;
21258;SDS011;10787;53.364;-1.480;2023-03-02T09:44:00;7.13;;;5.07;;
21258;SDS011;10787;53.364;-1.480;2023-03-02T09:54:52;7.37;;;3.90;;
21258;SDS011;10787;53.364;-1.480;2023-03-02T09:57:20;8.60;;;3.40;;
21258;SDS011;10787;53.364;-1.480;2023-03-02T10:00:10;5.53;;;3.40;;
21258;SDS011;10787;53.364;-1.480;2023-03-02T10:02:41;4.77;;;3.40;;
21258;SDS011;10787;53.364;-1.480;2023-03-02T10:05:14;4.37;;;3.40;;
21258;SDS011;10787;53.364;-1.480;2023-03-02T10:07:44;3.40;;;2.87;;
21258;SDS011;10787;53.364;-1.480;2023-03-02T10:13:25;5.03;;;3.30;;
21258;SDS011;10787;53.364;-1.480;2023-03-02T10:18:57;4.70;;;3.63;;
21258;SDS011;10787;53.364;-1.480;2023-03-02T10:21:42;4.00;;;3.53;;
21258;SDS011;10787;53.364;-1.480;2023-03-02T10:24:23;4.33;;;3.00;;
21258;SDS011;10787;53.364;-1.480;2023-03-02T10:32:37;5.90;;;3.90;;
21258;SDS011;10787;53.364;-1.480;2023-03-02T10:35:11;6.90;;;4.57;;
21258;SDS011;10787;53.364;-1.480;2023-03-02T10:37:40;7.10;;;5.37;;
21258;SDS011;10787;53.364;-1.480;2023-03-02T10:40:10;7.77;;;5.10;;
21258;SDS011;10787;53.364;-1.480;2023-03-02T10:42:51;9.90;;;5.17;;
21258;SDS011;10787;53.364;-1.480;2023-03-02T10:47:59;9.50;;;5.20;;
21258;SDS011;10787;53.364;-1.480;2023-03-02T10:50:35;8.17;;;5.50;;
21258;SDS011;10787;53.364;-1.480;2023-03-02T10:53:01;10.23;;;6.20;;
21258;SDS011;10787;53.364;-1.480;2023-03-02T10:55:30;8.70;;;6.57;;
21258;SDS011;10787;53.364;-1.480;2023-03-02T10:58:05;8.97;;;7.37;;
21258;SDS011;10787;53.364;-1.480;2023-03-02T11:00:53;8.97;;;7.10;;
21258;SDS011;10787;53.364;-1.480;2023-03-02T11:03:24;8.50;;;6.80;;
21258;SDS011;10787;53.364;-1.480;2023-03-02T11:06:10;9.37;;;6.90;;
21258;SDS011;10787;53.364;-1.480;2023-03-02T11:08:42;9.17;;;6.20;;
21258;SDS011;10787;53.364;-1.480;2023-03-02T11:11:21;9.63;;;6.73;;
21258;SDS011;10787;53.364;-1.480;2023-03-02T11:13:50;6.30;;;5.70;;
21258;SDS011;10787;53.364;-1.480;2023-03-02T11:18:49;9.53;;;5.70;;
21258;SDS011;10787;53.364;-1.480;2023-03-02T11:21:36;6.60;;;5.47;;
21258;SDS011;10787;53.364;-1.480;2023-03-02T11:24:10;7.40;;;5.60;;
21258;SDS011;10787;53.364;-1.480;2023-03-02T11:27:06;9.13;;;5.87;;
21258;SDS011;10787;53.364;-1.480;2023-03-02T11:32:30;12.20;;;7.50;;
21258;SDS011;10787;53.364;-1.480;2023-03-02T11:37:54;8.93;;;7.30;;
21258;SDS011;10787;53.364;-1.480;2023-03-02T11:40:25;12.00;;;7.70;;
21258;SDS011;10787;53.364;-1.480;2023-03-02T11:43:12;8.27;;;6.87;;
21258;SDS011;10787;53.364;-1.480;2023-03-02T11:45:46;9.27;;;6.67;;
21258;SDS011;10787;53.364;-1.480;2023-03-02T11:50:55;11.70;;;7.67;;
21258;SDS011;10787;53.364;-1.480;2023-03-02T11:53:45;9.03;;;7.20;;
21258;SDS011;10787;53.364;-1.480;2023-03-02T11:56:22;8.93;;;7.20;;
21258;SDS011;10787;53.364;-1.480;2023-03-02T11:58:53;9.40;;;7.27;;
21258;SDS011;10787;53.364;-1.480;2023-03-02T12:01:29;10.93;;;9.00;;
21258;SDS011;10787;53.364;-1.480;2023-03-02T12:04:10;12.57;;;8.97;;
21258;SDS011;10787;53.364;-1.480;2023-03-02T12:06:56;9.30;;;7.80;;
21258;SDS011;10787;53.364;-1.480;2023-03-02T12:09:31;10.97;;;6.77;;
21258;SDS011;10787;53.364;-1.480;2023-03-02T12:12:13;7.90;;;5.73;;
21258;SDS011;10787;53.364;-1.480;2023-03-02T12:14:59;7.50;;;5.60;;
21258;SDS011;10787;53.364;-1.480;2023-03-02T12:20:36;9.03;;;6.07;;
21258;SDS011;10787;53.364;-1.480;2023-03-02T12:22:48;7.50;;;5.50;;
21258;SDS011;10787;53.364;-1.480;2023-03-02T12:27:43;11.77;;;7.17;;
21258;SDS011;10787;53.364;-1.480;2023-03-02T12:32:40;10.57;;;7.90;;
21258;SDS011;10787;53.364;-1.480;2023-03-02T12:35:12;8.90;;;7.53;;
21258;SDS011;10787;53.364;-1.480;2023-03-02T12:43:11;10.27;;;8.10;;
21258;SDS011;10787;53.364;-1.480;2023-03-02T12:51:28;9.27;;;7.80;;
21258;SDS011;10787;53.364;-1.480;2023-03-02T12:54:06;12.43;;;7.60;;
21258;SDS011;10787;53.364;-1.480;2023-03-02T12:56:43;13.17;;;8.30;;
21258;SDS011;10787;53.364;-1.480;2023-03-02T12:59:18;12.60;;;8.30;;
21258;SDS011;10787;53.364;-1.480;2023-03-02T13:01:46;11.60;;;7.80;;
21258;SDS011;10787;53.364;-1.480;2023-03-02T13:07:04;11.63;;;8.50;;
21258;SDS011;10787;53.364;-1.480;2023-03-02T13:09:30;14.53;;;8.17;;
21258;SDS011;10787;53.364;-1.480;2023-03-02T13:11:56;9.60;;;7.40;;
21258;SDS011;10787;53.364;-1.480;2023-03-02T13:14:26;9.93;;;7.60;;
21258;SDS011;10787;53.364;-1.480;2023-03-02T13:16:57;12.53;;;7.57;;
21258;SDS011;10787;53.364;-1.480;2023-03-02T13:19:26;9.97;;;7.73;;
21258;SDS011;10787;53.364;-1.480;2023-03-02T13:21:54;14.40;;;8.27;;
21258;SDS011;10787;53.364;-1.480;2023-03-02T13:24:34;13.87;;;8.53;;
21258;SDS011;10787;53.364;-1.480;2023-03-02T13:27:14;10.70;;;8.17;;
21258;SDS011;10787;53.364;-1.480;2023-03-02T13:29:44;11.37;;;7.57;;
21258;SDS011;10787;53.364;-1.480;2023-03-02T13:34:44;8.20;;;6.60;;
21258;SDS011;10787;53.364;-1.480;2023-03-02T13:40:06;10.63;;;7.00;;
21258;SDS011;10787;53.364;-1.480;2023-03-02T13:42:57;9.40;;;6.40;;
21258;SDS011;10787;53.364;-1.480;2023-03-02T13:45:25;9.50;;;5.90;;
21258;SDS011;10787;53.364;-1.480;2023-03-02T13:47:53;8.17;;;4.80;;
21258;SDS011;10787;53.364;-1.480;2023-03-02T13:50:25;7.63;;;4.33;;
21258;SDS011;10787;53.364;-1.480;2023-03-02T13:53:00;7.33;;;4.43;;
21258;SDS011;10787;53.364;-1.480;2023-03-02T13:55:31;6.80;;;4.30;;
21258;SDS011;10787;53.364;-1.480;2023-03-02T13:58:00;9.10;;;5.20;;
21258;SDS011;10787;53.364;-1.480;2023-03-02T14:00:33;8.50;;;4.73;;
21258;SDS011;10787;53.364;-1.480;2023-03-02T14:03:02;8.57;;;4.73;;
21258;SDS011;10787;53.364;-1.480;2023-03-02T14:06:02;6.90;;;4.80;;
21258;SDS011;10787;53.364;-1.480;2023-03-02T14:08:30;10.07;;;6.00;;
21258;SDS011;10787;53.364;-1.480;2023-03-02T14:10:58;10.80;;;5.60;;
21258;SDS011;10787;53.364;-1.480;2023-03-02T14:13:36;12.73;;;6.23;;
21258;SDS011;10787;53.364;-1.480;2023-03-02T14:16:12;12.40;;;6.03;;
21258;SDS011;10787;53.364;-1.480;2023-03-02T14:18:44;9.77;;;6.10;;
21258;SDS011;10787;53.364;-1.480;2023-03-02T14:21:13;8.17;;;5.87;;
21258;SDS011;10787;53.364;-1.480;2023-03-02T14:23:39;8.30;;;6.27;;
21258;SDS011;10787;53.364;-1.480;2023-03-02T14:28:55;10.23;;;5.50;;
21258;SDS011;10787;53.364;-1.480;2023-03-02T14:31:25;9.23;;;6.20;;
21258;SDS011;10787;53.364;-1.480;2023-03-02T14:33:59;7.77;;;5.80;;
21258;SDS011;10787;53.364;-1.480;2023-03-02T14:36:26;8.07;;;5.70;;
21258;SDS011;10787;53.364;-1.480;2023-03-02T14:38:59;8.60;;;5.70;;
21258;SDS011;10787;53.364;-1.480;2023-03-02T14:41:30;9.17;;;5.23;;
21258;SDS011;10787;53.364;-1.480;2023-03-02T14:43:56;8.07;;;5.23;;
21258;SDS011;10787;53.364;-1.480;2023-03-02T14:46:27;9.50;;;6.10;;
21258;SDS011;10787;53.364;-1.480;2023-03-02T14:48:53;13.50;;;7.07;;
21258;SDS011;10787;53.364;-1.480;2023-03-02T14:51:24;7.60;;;6.23;;
21258;SDS011;10787;53.364;-1.480;2023-03-02T14:53:58;9.77;;;5.70;;
21258;SDS011;10787;53.364;-1.480;2023-03-02T14:56:28;9.47;;;6.30;;
21258;SDS011;10787;53.364;-1.480;2023-03-02T14:59:00;7.30;;;5.77;;
21258;SDS011;10787;53.364;-1.480;2023-03-02T15:01:26;8.10;;;6.07;;
21258;SDS011;10787;53.364;-1.480;2023-03-02T15:03:51;8.90;;;6.47;;
21258;SDS011;10787;53.364;-1.480;2023-03-02T15:08:56;9.47;;;6.30;;
21258;SDS011;10787;53.364;-1.480;2023-03-02T15:11:26;10.00;;;7.07;;
21258;SDS011;10787;53.364;-1.480;2023-03-02T15:13:55;13.17;;;6.93;;
21258;SDS011;10787;53.364;-1.480;2023-03-02T15:16:25;10.83;;;6.83;;
21258;SDS011;10787;53.364;-1.480;2023-03-02T15:18:52;13.20;;;8.00;;
21258;SDS011;10787;53.364;-1.480;2023-03-02T15:21:19;10.00;;;7.30;;
21258;SDS011;10787;53.364;-1.480;2023-03-02T15:23:46;9.73;;;6.50;;
21258;SDS011;10787;53.364;-1.480;2023-03-02T15:26:14;12.73;;;6.67;;
21258;SDS011;10787;53.364;-1.480;2023-03-02T15:28:47;8.90;;;6.23;;
21258;SDS011;10787;53.364;-1.480;2023-03-02T15:31:18;10.43;;;6.43;;
21258;SDS011;10787;53.364;-1.480;2023-03-02T15:33:45;9.23;;;6.97;;
21258;SDS011;10787;53.364;-1.480;2023-03-02T15:36:16;8.70;;;6.33;;
21258;SDS011;10787;53.364;-1.480;2023-03-02T15:38:50;12.87;;;8.20;;
21258;SDS011;10787;53.364;-1.480;2023-03-02T15:41:19;12.40;;;8.73;;
21258;SDS011;10787;53.364;-1.480;2023-03-02T15:43:48;9.80;;;8.07;;
21258;SDS011;10787;53.364;-1.480;2023-03-02T15:46:21;10.60;;;8.50;;
21258;SDS011;10787;53.364;-1.480;2023-03-02T15:48:47;12.93;;;7.60;;
21258;SDS011;10787;53.364;-1.480;2023-03-02T15:51:16;11.27;;;7.93;;
21258;SDS011;10787;53.364;-1.480;2023-03-02T15:53:42;11.13;;;8.53;;
21258;SDS011;10787;53.364;-1.480;2023-03-02T15:56:09;12.23;;;8.90;;
21258;SDS011;10787;53.364;-1.480;2023-03-02T15:58:37;11.03;;;8.00;;